Portada
METAR-TAF:

METAR-TAF

Aeropuertos :

Wiener Neustadt, Austria

latitud: 47-50-36N, longitud: 016-15-29E, altitud: 272 m

Observación

El informe se hizo hace 31 minutos, a las 12:00 UTC
Viento 13 kt del norte-noroeste con ráfagas de 25 kt
Temperatura
Presión

METAR: LOAN 271200Z 33013G25KT 25KM SCT035SC BKN050SC

Hora: 13:31 (12:31 UTC)

Pronóstico

El informe se hizo hace 1 hora y 6 minutos, a las 11:25 UTC
Pronóstico válido del 27 a las 12 UTC al 27 a las 21 UTC
Viento 10 kt del norte-noroeste
Visibilidad 10 km o más
Nubes dispersas a una altura de 3000 ft
Cielo nuboso a una altura de 4500 ft
Temporalmente
del 27 a las 12 UTC al 27 a las 15 UTC
Viento 15 kt del norte-noroeste con ráfagas de 25 kt

TAF: LOAN 271125Z 2712/2721 33010KT 9999 SCT030 BKN045 TEMPO 2712/2715 34015G25KT

Observaciones y pronósticos meteorológicos de más de 4000 aeropuertos (mensajes METAR y TAF).

Los puntos amarillos y rojos representan las estaciones disponibles.

Ponga el ratón en el punto deseado para ver el nombre de la estación.

Haga clic para ver las observaciones y los pronósticos meteorológicos.

Para cambiar el mapa : haga clic en los botones verdes con una cruz de color negro para hacer un zoom, en el botón verde con un guión para alejar o en las flechas verdes para mapas adyacentes.


METAR-TAF: